sensor_id;sensor_type;location;lat;lon;timestamp;P1;P2;P0
78063;PMS5003;67429;51.596;-3.264;2023-02-12T00:00:57;19;19;
78063;PMS5003;67429;51.596;-3.264;2023-02-12T00:03:23;19;19;
78063;PMS5003;67429;51.596;-3.264;2023-02-12T00:05:49;16;16;
78063;PMS5003;67429;51.596;-3.264;2023-02-12T00:08:14;12;12;
78063;PMS5003;67429;51.596;-3.264;2023-02-12T00:10:40;15;15;
78063;PMS5003;67429;51.596;-3.264;2023-02-12T00:13:05;14;13;
78063;PMS5003;67429;51.596;-3.264;2023-02-12T00:15:31;10;10;
78063;PMS5003;67429;51.596;-3.264;2023-02-12T00:17:56;8;8;
78063;PMS5003;67429;51.596;-3.264;2023-02-12T00:20:22;7;7;
78063;PMS5003;67429;51.596;-3.264;2023-02-12T00:22:48;7;7;
78063;PMS5003;67429;51.596;-3.264;2023-02-12T00:25:13;8;8;
78063;PMS5003;67429;51.596;-3.264;2023-02-12T00:27:39;17;17;
78063;PMS5003;67429;51.596;-3.264;2023-02-12T00:30:04;14;14;
78063;PMS5003;67429;51.596;-3.264;2023-02-12T00:32:29;19;19;
78063;PMS5003;67429;51.596;-3.264;2023-02-12T00:34:55;17;17;
78063;PMS5003;67429;51.596;-3.264;2023-02-12T00:37:20;19;18;
78063;PMS5003;67429;51.596;-3.264;2023-02-12T00:39:46;16;16;
78063;PMS5003;67429;51.596;-3.264;2023-02-12T00:42:12;16;13;
78063;PMS5003;67429;51.596;-3.264;2023-02-12T00:44:37;8;8;
78063;PMS5003;67429;51.596;-3.264;2023-02-12T00:47:03;8;8;
78063;PMS5003;67429;51.596;-3.264;2023-02-12T00:49:28;15;14;
78063;PMS5003;67429;51.596;-3.264;2023-02-12T00:51:54;9;9;
78063;PMS5003;67429;51.596;-3.264;2023-02-12T00:54:20;10;8;
78063;PMS5003;67429;51.596;-3.264;2023-02-12T00:56:45;15;15;
78063;PMS5003;67429;51.596;-3.264;2023-02-12T00:59:11;18;17;
78063;PMS5003;67429;51.596;-3.264;2023-02-12T01:01:38;16;15;
78063;PMS5003;67429;51.596;-3.264;2023-02-12T01:04:02;13;13;
78063;PMS5003;67429;51.596;-3.264;2023-02-12T01:06:28;12;11;
78063;PMS5003;67429;51.596;-3.264;2023-02-12T01:08:53;10;10;
78063;PMS5003;67429;51.596;-3.264;2023-02-12T01:11:19;10;10;
78063;PMS5003;67429;51.596;-3.264;2023-02-12T01:13:44;11;11;
78063;PMS5003;67429;51.596;-3.264;2023-02-12T01:16:13;10;10;
78063;PMS5003;67429;51.596;-3.264;2023-02-12T01:18:36;10;10;
78063;PMS5003;67429;51.596;-3.264;2023-02-12T01:21:02;9;9;
78063;PMS5003;67429;51.596;-3.264;2023-02-12T01:23:27;11;11;
78063;PMS5003;67429;51.596;-3.264;2023-02-12T01:25:53;12;12;
78063;PMS5003;67429;51.596;-3.264;2023-02-12T01:28:18;10;10;
78063;PMS5003;67429;51.596;-3.264;2023-02-12T01:30:44;12;12;
78063;PMS5003;67429;51.596;-3.264;2023-02-12T01:33:09;18;17;
78063;PMS5003;67429;51.596;-3.264;2023-02-12T01:35:36;9;9;
78063;PMS5003;67429;51.596;-3.264;2023-02-12T01:38:00;11;10;
78063;PMS5003;67429;51.596;-3.264;2023-02-12T01:40:26;10;10;
78063;PMS5003;67429;51.596;-3.264;2023-02-12T01:42:52;11;10;
78063;PMS5003;67429;51.596;-3.264;2023-02-12T01:47:44;10;9;
78063;PMS5003;67429;51.596;-3.264;2023-02-12T01:50:09;8;8;
78063;PMS5003;67429;51.596;-3.264;2023-02-12T01:52:35;8;8;
78063;PMS5003;67429;51.596;-3.264;2023-02-12T01:55:02;13;13;
78063;PMS5003;67429;51.596;-3.264;2023-02-12T01:57:25;15;14;
78063;PMS5003;67429;51.596;-3.264;2023-02-12T01:59:51;10;10;
78063;PMS5003;67429;51.596;-3.264;2023-02-12T02:02:16;11;11;
78063;PMS5003;67429;51.596;-3.264;2023-02-12T02:04:42;15;14;
78063;PMS5003;67429;51.596;-3.264;2023-02-12T02:07:08;12;12;
78063;PMS5003;67429;51.596;-3.264;2023-02-12T02:09:34;10;10;
78063;PMS5003;67429;51.596;-3.264;2023-02-12T02:11:58;9;9;
78063;PMS5003;67429;51.596;-3.264;2023-02-12T02:14:24;7;7;
78063;PMS5003;67429;51.596;-3.264;2023-02-12T02:16:52;8;8;
78063;PMS5003;67429;51.596;-3.264;2023-02-12T02:19:18;8;8;
78063;PMS5003;67429;51.596;-3.264;2023-02-12T02:21:45;10;9;
78063;PMS5003;67429;51.596;-3.264;2023-02-12T02:29:00;12;11;
78063;PMS5003;67429;51.596;-3.264;2023-02-12T02:31:24;11;11;
78063;PMS5003;67429;51.596;-3.264;2023-02-12T02:33:50;14;12;
78063;PMS5003;67429;51.596;-3.264;2023-02-12T02:36:16;8;8;
78063;PMS5003;67429;51.596;-3.264;2023-02-12T02:38:40;9;8;
78063;PMS5003;67429;51.596;-3.264;2023-02-12T02:41:06;9;9;
78063;PMS5003;67429;51.596;-3.264;2023-02-12T02:43:32;7;7;
78063;PMS5003;67429;51.596;-3.264;2023-02-12T02:45:58;8;8;
78063;PMS5003;67429;51.596;-3.264;2023-02-12T02:48:23;8;8;
78063;PMS5003;67429;51.596;-3.264;2023-02-12T02:50:49;6;6;
78063;PMS5003;67429;51.596;-3.264;2023-02-12T02:53:15;7;7;
78063;PMS5003;67429;51.596;-3.264;2023-02-12T02:55:40;9;9;
78063;PMS5003;67429;51.596;-3.264;2023-02-12T02:58:06;12;11;
78063;PMS5003;67429;51.596;-3.264;2023-02-12T03:00:31;12;10;
78063;PMS5003;67429;51.596;-3.264;2023-02-12T03:02:57;11;11;
78063;PMS5003;67429;51.596;-3.264;2023-02-12T03:05:23;9;8;
78063;PMS5003;67429;51.596;-3.264;2023-02-12T03:07:48;13;12;
78063;PMS5003;67429;51.596;-3.264;2023-02-12T03:10:14;11;11;
78063;PMS5003;67429;51.596;-3.264;2023-02-12T03:12:40;13;13;
78063;PMS5003;67429;51.596;-3.264;2023-02-12T03:15:06;12;12;
78063;PMS5003;67429;51.596;-3.264;2023-02-12T03:17:31;11;11;
78063;PMS5003;67429;51.596;-3.264;2023-02-12T03:19:57;16;14;
78063;PMS5003;67429;51.596;-3.264;2023-02-12T03:22:22;13;13;
78063;PMS5003;67429;51.596;-3.264;2023-02-12T03:24:49;12;12;
78063;PMS5003;67429;51.596;-3.264;2023-02-12T03:27:14;12;12;
78063;PMS5003;67429;51.596;-3.264;2023-02-12T03:29:38;11;11;
78063;PMS5003;67429;51.596;-3.264;2023-02-12T03:32:08;14;13;
78063;PMS5003;67429;51.596;-3.264;2023-02-12T03:34:33;16;14;
78063;PMS5003;67429;51.596;-3.264;2023-02-12T03:36:56;13;13;
78063;PMS5003;67429;51.596;-3.264;2023-02-12T03:39:23;13;13;
78063;PMS5003;67429;51.596;-3.264;2023-02-12T03:41:48;13;13;
78063;PMS5003;67429;51.596;-3.264;2023-02-12T03:44:14;12;12;
78063;PMS5003;67429;51.596;-3.264;2023-02-12T03:46:39;16;16;
78063;PMS5003;67429;51.596;-3.264;2023-02-12T03:49:05;13;11;
78063;PMS5003;67429;51.596;-3.264;2023-02-12T03:51:30;16;14;
78063;PMS5003;67429;51.596;-3.264;2023-02-12T03:53:55;9;9;
78063;PMS5003;67429;51.596;-3.264;2023-02-12T03:56:21;12;12;
78063;PMS5003;67429;51.596;-3.264;2023-02-12T03:58:46;10;10;
78063;PMS5003;67429;51.596;-3.264;2023-02-12T04:01:12;9;8;
78063;PMS5003;67429;51.596;-3.264;2023-02-12T04:03:37;11;10;
78063;PMS5003;67429;51.596;-3.264;2023-02-12T04:06:03;10;8;
78063;PMS5003;67429;51.596;-3.264;2023-02-12T04:08:29;15;12;
78063;PMS5003;67429;51.596;-3.264;2023-02-12T04:10:57;11;10;
78063;PMS5003;67429;51.596;-3.264;2023-02-12T04:13:22;11;11;
78063;PMS5003;67429;51.596;-3.264;2023-02-12T04:15:50;11;11;
78063;PMS5003;67429;51.596;-3.264;2023-02-12T04:18:12;14;14;
78063;PMS5003;67429;51.596;-3.264;2023-02-12T04:20:41;10;10;
78063;PMS5003;67429;51.596;-3.264;2023-02-12T04:23:06;10;10;
78063;PMS5003;67429;51.596;-3.264;2023-02-12T04:25:32;11;11;
78063;PMS5003;67429;51.596;-3.264;2023-02-12T04:27:55;11;11;
78063;PMS5003;67429;51.596;-3.264;2023-02-12T04:30:20;11;11;
78063;PMS5003;67429;51.596;-3.264;2023-02-12T04:32:46;11;11;
78063;PMS5003;67429;51.596;-3.264;2023-02-12T04:35:14;12;12;
78063;PMS5003;67429;51.596;-3.264;2023-02-12T04:37:37;12;11;
78063;PMS5003;67429;51.596;-3.264;2023-02-12T04:40:02;10;9;
78063;PMS5003;67429;51.596;-3.264;2023-02-12T04:42:27;11;11;
78063;PMS5003;67429;51.596;-3.264;2023-02-12T04:44:53;11;10;
78063;PMS5003;67429;51.596;-3.264;2023-02-12T04:47:19;12;12;
78063;PMS5003;67429;51.596;-3.264;2023-02-12T04:49:44;11;11;
78063;PMS5003;67429;51.596;-3.264;2023-02-12T04:52:10;11;11;
78063;PMS5003;67429;51.596;-3.264;2023-02-12T04:54:35;11;11;
78063;PMS5003;67429;51.596;-3.264;2023-02-12T04:57:00;10;10;
78063;PMS5003;67429;51.596;-3.264;2023-02-12T04:59:26;11;11;
78063;PMS5003;67429;51.596;-3.264;2023-02-12T05:01:52;9;9;
78063;PMS5003;67429;51.596;-3.264;2023-02-12T05:04:17;11;10;
78063;PMS5003;67429;51.596;-3.264;2023-02-12T05:06:44;10;10;
78063;PMS5003;67429;51.596;-3.264;2023-02-12T05:09:09;11;11;
78063;PMS5003;67429;51.596;-3.264;2023-02-12T05:11:34;9;9;
78063;PMS5003;67429;51.596;-3.264;2023-02-12T05:14:00;9;9;
78063;PMS5003;67429;51.596;-3.264;2023-02-12T05:16:25;9;9;
78063;PMS5003;67429;51.596;-3.264;2023-02-12T05:18:51;11;11;
78063;PMS5003;67429;51.596;-3.264;2023-02-12T05:21:17;10;10;
78063;PMS5003;67429;51.596;-3.264;2023-02-12T05:23:42;11;10;
78063;PMS5003;67429;51.596;-3.264;2023-02-12T05:26:09;9;9;
78063;PMS5003;67429;51.596;-3.264;2023-02-12T05:28:34;11;10;
78063;PMS5003;67429;51.596;-3.264;2023-02-12T05:30:59;11;11;
78063;PMS5003;67429;51.596;-3.264;2023-02-12T05:33:25;10;9;
78063;PMS5003;67429;51.596;-3.264;2023-02-12T05:35:50;10;10;
78063;PMS5003;67429;51.596;-3.264;2023-02-12T05:38:16;10;9;
78063;PMS5003;67429;51.596;-3.264;2023-02-12T05:40:42;9;9;
78063;PMS5003;67429;51.596;-3.264;2023-02-12T05:43:07;11;10;
78063;PMS5003;67429;51.596;-3.264;2023-02-12T05:45:33;10;10;
78063;PMS5003;67429;51.596;-3.264;2023-02-12T05:47:58;9;8;
78063;PMS5003;67429;51.596;-3.264;2023-02-12T05:50:24;9;9;
78063;PMS5003;67429;51.596;-3.264;2023-02-12T05:52:50;10;9;
78063;PMS5003;67429;51.596;-3.264;2023-02-12T05:55:15;9;9;
78063;PMS5003;67429;51.596;-3.264;2023-02-12T05:57:41;13;13;
78063;PMS5003;67429;51.596;-3.264;2023-02-12T06:00:07;11;11;
78063;PMS5003;67429;51.596;-3.264;2023-02-12T06:02:32;11;11;
78063;PMS5003;67429;51.596;-3.264;2023-02-12T06:04:57;12;12;
78063;PMS5003;67429;51.596;-3.264;2023-02-12T06:07:23;13;13;
78063;PMS5003;67429;51.596;-3.264;2023-02-12T06:09:49;12;12;
78063;PMS5003;67429;51.596;-3.264;2023-02-12T06:12:14;14;14;
78063;PMS5003;67429;51.596;-3.264;2023-02-12T06:14:39;12;12;
78063;PMS5003;67429;51.596;-3.264;2023-02-12T06:17:04;11;11;
78063;PMS5003;67429;51.596;-3.264;2023-02-12T06:19:30;18;17;
78063;PMS5003;67429;51.596;-3.264;2023-02-12T06:21:56;11;11;
78063;PMS5003;67429;51.596;-3.264;2023-02-12T06:24:21;12;12;
78063;PMS5003;67429;51.596;-3.264;2023-02-12T06:26:48;16;16;
78063;PMS5003;67429;51.596;-3.264;2023-02-12T06:29:12;16;15;
78063;PMS5003;67429;51.596;-3.264;2023-02-12T06:31:38;16;15;
78063;PMS5003;67429;51.596;-3.264;2023-02-12T06:34:03;16;15;
78063;PMS5003;67429;51.596;-3.264;2023-02-12T06:36:29;12;12;
78063;PMS5003;67429;51.596;-3.264;2023-02-12T06:38:54;15;15;
78063;PMS5003;67429;51.596;-3.264;2023-02-12T06:41:20;15;12;
78063;PMS5003;67429;51.596;-3.264;2023-02-12T06:43:46;14;13;
78063;PMS5003;67429;51.596;-3.264;2023-02-12T06:46:11;16;16;
78063;PMS5003;67429;51.596;-3.264;2023-02-12T06:48:36;16;14;
78063;PMS5003;67429;51.596;-3.264;2023-02-12T06:51:04;16;14;
78063;PMS5003;67429;51.596;-3.264;2023-02-12T06:53:27;16;15;
78063;PMS5003;67429;51.596;-3.264;2023-02-12T06:55:53;16;16;
78063;PMS5003;67429;51.596;-3.264;2023-02-12T06:58:18;15;15;
78063;PMS5003;67429;51.596;-3.264;2023-02-12T07:00:44;16;16;
78063;PMS5003;67429;51.596;-3.264;2023-02-12T07:03:09;18;15;
78063;PMS5003;67429;51.596;-3.264;2023-02-12T07:05:38;17;17;
78063;PMS5003;67429;51.596;-3.264;2023-02-12T07:08:00;17;16;
78063;PMS5003;67429;51.596;-3.264;2023-02-12T07:10:26;15;13;
78063;PMS5003;67429;51.596;-3.264;2023-02-12T07:12:51;19;19;
78063;PMS5003;67429;51.596;-3.264;2023-02-12T07:15:17;17;16;
78063;PMS5003;67429;51.596;-3.264;2023-02-12T07:17:42;17;17;
78063;PMS5003;67429;51.596;-3.264;2023-02-12T07:20:08;17;16;
78063;PMS5003;67429;51.596;-3.264;2023-02-12T07:22:34;16;15;
78063;PMS5003;67429;51.596;-3.264;2023-02-12T07:24:59;17;17;
78063;PMS5003;67429;51.596;-3.264;2023-02-12T07:27:24;20;19;
78063;PMS5003;67429;51.596;-3.264;2023-02-12T07:29:50;23;20;
78063;PMS5003;67429;51.596;-3.264;2023-02-12T07:32:16;16;16;
78063;PMS5003;67429;51.596;-3.264;2023-02-12T07:34:41;20;20;
78063;PMS5003;67429;51.596;-3.264;2023-02-12T07:37:07;16;15;
78063;PMS5003;67429;51.596;-3.264;2023-02-12T07:39:33;21;20;
78063;PMS5003;67429;51.596;-3.264;2023-02-12T07:41:58;16;16;
78063;PMS5003;67429;51.596;-3.264;2023-02-12T07:44:24;16;16;
78063;PMS5003;67429;51.596;-3.264;2023-02-12T07:46:49;18;17;
78063;PMS5003;67429;51.596;-3.264;2023-02-12T07:49:16;19;19;
78063;PMS5003;67429;51.596;-3.264;2023-02-12T07:51:40;20;20;
78063;PMS5003;67429;51.596;-3.264;2023-02-12T07:54:06;18;18;
78063;PMS5003;67429;51.596;-3.264;2023-02-12T07:56:32;20;20;
78063;PMS5003;67429;51.596;-3.264;2023-02-12T07:58:57;20;20;
78063;PMS5003;67429;51.596;-3.264;2023-02-12T08:01:22;19;18;
78063;PMS5003;67429;51.596;-3.264;2023-02-12T08:03:48;17;17;
78063;PMS5003;67429;51.596;-3.264;2023-02-12T08:06:14;20;20;
78063;PMS5003;67429;51.596;-3.264;2023-02-12T08:08:39;19;19;
78063;PMS5003;67429;51.596;-3.264;2023-02-12T08:11:05;21;20;
78063;PMS5003;67429;51.596;-3.264;2023-02-12T08:13:30;23;21;
78063;PMS5003;67429;51.596;-3.264;2023-02-12T08:15:58;19;19;
78063;PMS5003;67429;51.596;-3.264;2023-02-12T08:18:20;24;23;
78063;PMS5003;67429;51.596;-3.264;2023-02-12T08:20:45;22;22;
78063;PMS5003;67429;51.596;-3.264;2023-02-12T08:23:10;20;20;
78063;PMS5003;67429;51.596;-3.264;2023-02-12T08:25:36;19;19;
78063;PMS5003;67429;51.596;-3.264;2023-02-12T08:28:01;20;19;
78063;PMS5003;67429;51.596;-3.264;2023-02-12T08:30:27;22;21;
78063;PMS5003;67429;51.596;-3.264;2023-02-12T08:32:52;19;19;
78063;PMS5003;67429;51.596;-3.264;2023-02-12T08:35:18;26;24;
78063;PMS5003;67429;51.596;-3.264;2023-02-12T08:37:43;23;22;
78063;PMS5003;67429;51.596;-3.264;2023-02-12T08:40:09;27;27;
78063;PMS5003;67429;51.596;-3.264;2023-02-12T08:42:34;27;26;
78063;PMS5003;67429;51.596;-3.264;2023-02-12T08:44:59;33;33;
78063;PMS5003;67429;51.596;-3.264;2023-02-12T08:47:24;32;32;
78063;PMS5003;67429;51.596;-3.264;2023-02-12T08:49:50;36;35;
78063;PMS5003;67429;51.596;-3.264;2023-02-12T08:52:16;39;37;
78063;PMS5003;67429;51.596;-3.264;2023-02-12T08:54:41;37;36;
78063;PMS5003;67429;51.596;-3.264;2023-02-12T08:57:07;38;37;
78063;PMS5003;67429;51.596;-3.264;2023-02-12T08:59:32;41;39;
78063;PMS5003;67429;51.596;-3.264;2023-02-12T09:01:58;40;39;
78063;PMS5003;67429;51.596;-3.264;2023-02-12T09:04:24;41;38;
78063;PMS5003;67429;51.596;-3.264;2023-02-12T09:06:49;38;35;
78063;PMS5003;67429;51.596;-3.264;2023-02-12T09:09:14;46;40;
78063;PMS5003;67429;51.596;-3.264;2023-02-12T09:11:39;37;36;
78063;PMS5003;67429;51.596;-3.264;2023-02-12T09:14:05;42;41;
78063;PMS5003;67429;51.596;-3.264;2023-02-12T09:16:31;38;37;
78063;PMS5003;67429;51.596;-3.264;2023-02-12T09:18:55;39;37;
78063;PMS5003;67429;51.596;-3.264;2023-02-12T09:21:20;48;41;
78063;PMS5003;67429;51.596;-3.264;2023-02-12T09:23:46;40;38;
78063;PMS5003;67429;51.596;-3.264;2023-02-12T09:26:12;41;39;
78063;PMS5003;67429;51.596;-3.264;2023-02-12T09:28:37;39;37;
78063;PMS5003;67429;51.596;-3.264;2023-02-12T09:31:03;44;41;
78063;PMS5003;67429;51.596;-3.264;2023-02-12T09:33:27;34;33;
78063;PMS5003;67429;51.596;-3.264;2023-02-12T09:35:53;44;40;
78063;PMS5003;67429;51.596;-3.264;2023-02-12T09:38:18;42;39;
78063;PMS5003;67429;51.596;-3.264;2023-02-12T09:40:46;42;40;
78063;PMS5003;67429;51.596;-3.264;2023-02-12T09:43:11;46;43;
78063;PMS5003;67429;51.596;-3.264;2023-02-12T09:45:36;35;33;
78063;PMS5003;67429;51.596;-3.264;2023-02-12T09:48:02;47;44;
78063;PMS5003;67429;51.596;-3.264;2023-02-12T09:50:29;37;35;
78063;PMS5003;67429;51.596;-3.264;2023-02-12T09:52:50;43;40;
78063;PMS5003;67429;51.596;-3.264;2023-02-12T09:55:16;47;44;
78063;PMS5003;67429;51.596;-3.264;2023-02-12T09:57:41;41;40;
78063;PMS5003;67429;51.596;-3.264;2023-02-12T10:00:07;37;37;
78063;PMS5003;67429;51.596;-3.264;2023-02-12T10:02:33;46;44;
78063;PMS5003;67429;51.596;-3.264;2023-02-12T10:04:58;40;38;
78063;PMS5003;67429;51.596;-3.264;2023-02-12T10:07:28;42;40;
78063;PMS5003;67429;51.596;-3.264;2023-02-12T10:09:55;42;40;
78063;PMS5003;67429;51.596;-3.264;2023-02-12T10:12:16;41;41;
78063;PMS5003;67429;51.596;-3.264;2023-02-12T10:14:45;39;37;
78063;PMS5003;67429;51.596;-3.264;2023-02-12T10:17:07;38;36;
78063;PMS5003;67429;51.596;-3.264;2023-02-12T10:19:45;38;37;
78063;PMS5003;67429;51.596;-3.264;2023-02-12T10:21:58;42;39;
78063;PMS5003;67429;51.596;-3.264;2023-02-12T10:24:25;33;32;
78063;PMS5003;67429;51.596;-3.264;2023-02-12T10:26:47;37;37;
78063;PMS5003;67429;51.596;-3.264;2023-02-12T10:29:13;39;38;
78063;PMS5003;67429;51.596;-3.264;2023-02-12T10:31:39;40;40;
78063;PMS5003;67429;51.596;-3.264;2023-02-12T10:34:05;34;32;
78063;PMS5003;67429;51.596;-3.264;2023-02-12T10:36:31;40;38;
78063;PMS5003;67429;51.596;-3.264;2023-02-12T10:38:54;37;36;
78063;PMS5003;67429;51.596;-3.264;2023-02-12T10:41:19;40;39;
78063;PMS5003;67429;51.596;-3.264;2023-02-12T10:43:45;42;40;
78063;PMS5003;67429;51.596;-3.264;2023-02-12T10:46:11;34;32;
78063;PMS5003;67429;51.596;-3.264;2023-02-12T10:48:36;37;36;
78063;PMS5003;67429;51.596;-3.264;2023-02-12T10:51:03;36;32;
78063;PMS5003;67429;51.596;-3.264;2023-02-12T10:53:28;37;35;
78063;PMS5003;67429;51.596;-3.264;2023-02-12T10:58:18;33;33;
78063;PMS5003;67429;51.596;-3.264;2023-02-12T11:00:43;37;33;
78063;PMS5003;67429;51.596;-3.264;2023-02-12T11:05:35;36;35;
78063;PMS5003;67429;51.596;-3.264;2023-02-12T11:07:59;30;28;
78063;PMS5003;67429;51.596;-3.264;2023-02-12T11:10:26;34;33;
78063;PMS5003;67429;51.596;-3.264;2023-02-12T11:12:51;32;30;
78063;PMS5003;67429;51.596;-3.264;2023-02-12T11:15:17;33;31;
78063;PMS5003;67429;51.596;-3.264;2023-02-12T11:17:43;36;35;
78063;PMS5003;67429;51.596;-3.264;2023-02-12T11:22:33;33;31;
78063;PMS5003;67429;51.596;-3.264;2023-02-12T11:24:59;31;30;
78063;PMS5003;67429;51.596;-3.264;2023-02-12T11:27:25;38;35;
78063;PMS5003;67429;51.596;-3.264;2023-02-12T11:32:15;37;36;
78063;PMS5003;67429;51.596;-3.264;2023-02-12T11:34:39;36;36;
78063;PMS5003;67429;51.596;-3.264;2023-02-12T11:37:06;36;34;
78063;PMS5003;67429;51.596;-3.264;2023-02-12T11:39:31;36;36;
78063;PMS5003;67429;51.596;-3.264;2023-02-12T11:41:56;37;37;
78063;PMS5003;67429;51.596;-3.264;2023-02-12T11:44:21;38;37;
78063;PMS5003;67429;51.596;-3.264;2023-02-12T11:46:46;29;29;
78063;PMS5003;67429;51.596;-3.264;2023-02-12T11:49:13;38;36;
78063;PMS5003;67429;51.596;-3.264;2023-02-12T11:51:37;34;34;
78063;PMS5003;67429;51.596;-3.264;2023-02-12T11:54:03;34;33;
78063;PMS5003;67429;51.596;-3.264;2023-02-12T11:58:53;24;24;
78063;PMS5003;67429;51.596;-3.264;2023-02-12T12:01:19;24;24;
78063;PMS5003;67429;51.596;-3.264;2023-02-12T12:03:46;29;28;
78063;PMS5003;67429;51.596;-3.264;2023-02-12T12:06:15;26;23;
78063;PMS5003;67429;51.596;-3.264;2023-02-12T12:08:37;27;25;
78063;PMS5003;67429;51.596;-3.264;2023-02-12T12:11:02;28;26;
78063;PMS5003;67429;51.596;-3.264;2023-02-12T12:13:28;26;25;
78063;PMS5003;67429;51.596;-3.264;2023-02-12T12:15:53;28;26;
78063;PMS5003;67429;51.596;-3.264;2023-02-12T12:18:20;26;23;
78063;PMS5003;67429;51.596;-3.264;2023-02-12T12:20:44;23;22;
78063;PMS5003;67429;51.596;-3.264;2023-02-12T12:23:08;24;24;
78063;PMS5003;67429;51.596;-3.264;2023-02-12T12:25:34;24;24;
78063;PMS5003;67429;51.596;-3.264;2023-02-12T12:28:00;27;25;
78063;PMS5003;67429;51.596;-3.264;2023-02-12T12:30:27;24;22;
78063;PMS5003;67429;51.596;-3.264;2023-02-12T12:32:51;20;19;
78063;PMS5003;67429;51.596;-3.264;2023-02-12T12:35:16;20;20;
78063;PMS5003;67429;51.596;-3.264;2023-02-12T12:37:42;27;25;
78063;PMS5003;67429;51.596;-3.264;2023-02-12T12:40:10;24;24;
78063;PMS5003;67429;51.596;-3.264;2023-02-12T12:45:02;23;19;
78063;PMS5003;67429;51.596;-3.264;2023-02-12T12:47:24;21;21;
78063;PMS5003;67429;51.596;-3.264;2023-02-12T12:49:52;26;24;
78063;PMS5003;67429;51.596;-3.264;2023-02-12T12:52:18;24;24;
78063;PMS5003;67429;51.596;-3.264;2023-02-12T12:54:43;24;22;
78063;PMS5003;67429;51.596;-3.264;2023-02-12T12:57:06;26;25;
78063;PMS5003;67429;51.596;-3.264;2023-02-12T12:59:39;22;22;
78063;PMS5003;67429;51.596;-3.264;2023-02-12T13:02:00;25;24;
78063;PMS5003;67429;51.596;-3.264;2023-02-12T13:04:31;30;28;
78063;PMS5003;67429;51.596;-3.264;2023-02-12T13:06:50;28;27;
78063;PMS5003;67429;51.596;-3.264;2023-02-12T13:09:16;28;26;
78063;PMS5003;67429;51.596;-3.264;2023-02-12T13:11:39;36;31;
78063;PMS5003;67429;51.596;-3.264;2023-02-12T13:14:06;29;28;
78063;PMS5003;67429;51.596;-3.264;2023-02-12T13:16:29;26;25;
78063;PMS5003;67429;51.596;-3.264;2023-02-12T13:18:54;27;27;
78063;PMS5003;67429;51.596;-3.264;2023-02-12T13:21:21;28;27;
78063;PMS5003;67429;51.596;-3.264;2023-02-12T13:23:47;22;22;
78063;PMS5003;67429;51.596;-3.264;2023-02-12T13:26:11;26;26;
78063;PMS5003;67429;51.596;-3.264;2023-02-12T13:28:35;30;29;
78063;PMS5003;67429;51.596;-3.264;2023-02-12T13:31:00;23;23;
78063;PMS5003;67429;51.596;-3.264;2023-02-12T13:33:26;26;25;
78063;PMS5003;67429;51.596;-3.264;2023-02-12T13:35:51;23;22;
78063;PMS5003;67429;51.596;-3.264;2023-02-12T13:38:18;25;25;
78063;PMS5003;67429;51.596;-3.264;2023-02-12T13:40:41;26;25;
78063;PMS5003;67429;51.596;-3.264;2023-02-12T13:43:13;24;24;
78063;PMS5003;67429;51.596;-3.264;2023-02-12T13:45:37;29;27;
78063;PMS5003;67429;51.596;-3.264;2023-02-12T13:48:04;22;21;
78063;PMS5003;67429;51.596;-3.264;2023-02-12T13:50:28;28;26;
78063;PMS5003;67429;51.596;-3.264;2023-02-12T13:52:51;25;24;
78063;PMS5003;67429;51.596;-3.264;2023-02-12T13:55:20;28;28;
78063;PMS5003;67429;51.596;-3.264;2023-02-12T13:57:40;26;25;
78063;PMS5003;67429;51.596;-3.264;2023-02-12T14:00:10;29;29;
78063;PMS5003;67429;51.596;-3.264;2023-02-12T14:04:57;25;24;
78063;PMS5003;67429;51.596;-3.264;2023-02-12T14:07:22;31;29;
78063;PMS5003;67429;51.596;-3.264;2023-02-12T14:12:14;25;24;
78063;PMS5003;67429;51.596;-3.264;2023-02-12T14:14:39;26;25;
78063;PMS5003;67429;51.596;-3.264;2023-02-12T14:21:53;27;26;
78063;PMS5003;67429;51.596;-3.264;2023-02-12T14:26:44;23;22;
78063;PMS5003;67429;51.596;-3.264;2023-02-12T14:29:14;25;25;
78063;PMS5003;67429;51.596;-3.264;2023-02-12T14:31:35;23;22;
78063;PMS5003;67429;51.596;-3.264;2023-02-12T14:38:57;25;23;
78063;PMS5003;67429;51.596;-3.264;2023-02-12T14:43:42;26;25;
78063;PMS5003;67429;51.596;-3.264;2023-02-12T14:48:39;27;27;
78063;PMS5003;67429;51.596;-3.264;2023-02-12T14:53:25;23;23;
78063;PMS5003;67429;51.596;-3.264;2023-02-12T14:55:48;26;26;
78063;PMS5003;67429;51.596;-3.264;2023-02-12T14:58:16;26;23;
78063;PMS5003;67429;51.596;-3.264;2023-02-12T15:00:39;23;22;
78063;PMS5003;67429;51.596;-3.264;2023-02-12T15:03:12;24;23;
78063;PMS5003;67429;51.596;-3.264;2023-02-12T15:05:31;22;21;
78063;PMS5003;67429;51.596;-3.264;2023-02-12T15:07:57;27;26;
78063;PMS5003;67429;51.596;-3.264;2023-02-12T15:10:22;32;29;
78063;PMS5003;67429;51.596;-3.264;2023-02-12T15:12:47;24;24;
78063;PMS5003;67429;51.596;-3.264;2023-02-12T15:15:14;26;25;
78063;PMS5003;67429;51.596;-3.264;2023-02-12T15:17:38;27;26;
78063;PMS5003;67429;51.596;-3.264;2023-02-12T15:20:03;27;24;
78063;PMS5003;67429;51.596;-3.264;2023-02-12T15:22:28;28;27;
78063;PMS5003;67429;51.596;-3.264;2023-02-12T15:24:53;27;27;
78063;PMS5003;67429;51.596;-3.264;2023-02-12T15:27:18;30;27;
78063;PMS5003;67429;51.596;-3.264;2023-02-12T15:29:44;22;20;
78063;PMS5003;67429;51.596;-3.264;2023-02-12T15:32:14;23;22;
78063;PMS5003;67429;51.596;-3.264;2023-02-12T15:34:35;26;26;
78063;PMS5003;67429;51.596;-3.264;2023-02-12T15:37:00;25;24;
78063;PMS5003;67429;51.596;-3.264;2023-02-12T15:39:26;23;21;
78063;PMS5003;67429;51.596;-3.264;2023-02-12T15:41:50;28;27;
78063;PMS5003;67429;51.596;-3.264;2023-02-12T15:44:19;30;29;
78063;PMS5003;67429;51.596;-3.264;2023-02-12T15:51:33;25;24;
78063;PMS5003;67429;51.596;-3.264;2023-02-12T15:53:57;29;29;
78063;PMS5003;67429;51.596;-3.264;2023-02-12T15:56:23;41;38;
78063;PMS5003;67429;51.596;-3.264;2023-02-12T15:58:49;39;36;
78063;PMS5003;67429;51.596;-3.264;2023-02-12T16:01:15;34;31;
78063;PMS5003;67429;51.596;-3.264;2023-02-12T16:03:39;31;29;
78063;PMS5003;67429;51.596;-3.264;2023-02-12T16:06:06;33;29;
78063;PMS5003;67429;51.596;-3.264;2023-02-12T16:08:30;33;29;
78063;PMS5003;67429;51.596;-3.264;2023-02-12T16:10:55;26;26;
78063;PMS5003;67429;51.596;-3.264;2023-02-12T16:13:23;24;24;
78063;PMS5003;67429;51.596;-3.264;2023-02-12T16:15:59;28;27;
78063;PMS5003;67429;51.596;-3.264;2023-02-12T16:20:36;26;24;
78063;PMS5003;67429;51.596;-3.264;2023-02-12T16:23:04;26;25;
78063;PMS5003;67429;51.596;-3.264;2023-02-12T16:25:29;22;20;
78063;PMS5003;67429;51.596;-3.264;2023-02-12T16:27:55;25;25;
78063;PMS5003;67429;51.596;-3.264;2023-02-12T16:30:23;25;23;
78063;PMS5003;67429;51.596;-3.264;2023-02-12T16:32:43;25;25;
78063;PMS5003;67429;51.596;-3.264;2023-02-12T16:37:41;24;24;
78063;PMS5003;67429;51.596;-3.264;2023-02-12T16:40:08;24;24;
78063;PMS5003;67429;51.596;-3.264;2023-02-12T16:42:26;23;22;
78063;PMS5003;67429;51.596;-3.264;2023-02-12T16:44:51;23;22;
78063;PMS5003;67429;51.596;-3.264;2023-02-12T16:47:18;24;23;